Dionea — ISYR — position and weather

sailwx.info

Track history (hours):
 
Tides and Currents Weather Stations Pressure Air Temp Water Temp Dewpoint Dewpoint Depression Visibility Wind Speed Wind Dir Waves Ship Positions

Dionea

Last reported at 2014-Aug-25 17:29 UTC. Time now 2014-Aug-29 16:21 UTC.
Position N 44°24' E 008°56'.

Length 52 m.

Type: Pleasure craft. MMSI: 247159400.

Date/timePositionNaut miles runAvg speedWind from/ knotsBaromVisibWave heightAir tempDewpointWater temp
2014-Aug-25 17:29N 44°24' E 008°56'7 7.1
2014-Aug-25 16:33N 44°17' E 008°54'5513.0
2014-Aug-25 12:19N 43°48' E 007°49'2212.3
2014-Aug-25 10:34N 43°42' E 007°21'0 0.0
2014-Aug-25 09:33N 43°42' E 007°21'0 0.0
2014-Aug-25 08:30N 43°42' E 007°21'0 0.0
2014-Aug-25 07:33N 43°41' E 007°21'0 0.0
2014-Aug-25 06:33N 43°41' E 007°21'0 0.0
2014-Aug-25 05:33N 43°41' E 007°21'0 0.0
2014-Aug-25 04:29N 43°41' E 007°21'0 0.0
2014-Aug-25 03:33N 43°41' E 007°21'0 0.0
2014-Aug-25 02:32N 43°41' E 007°21'0 0.0
2014-Aug-25 01:33N 43°41' E 007°21'0 0.0
2014-Aug-25 00:34N 43°41' E 007°21'0 0.0
2014-Aug-24 23:33N 43°41' E 007°21'0 0.0
2014-Aug-24 22:34N 43°41' E 007°21'0 0.0
2014-Aug-24 21:34N 43°41' E 007°21'0 0.0
2014-Aug-24 20:31N 43°41' E 007°21'0 0.0
2014-Aug-24 19:32N 43°41' E 007°21'0 0.0
2014-Aug-24 18:33N 43°42' E 007°21'0 0.0
2014-Aug-24 17:33N 43°42' E 007°21'0 0.0
2014-Aug-24 16:30N 43°42' E 007°21'0 0.0
2014-Aug-24 15:32N 43°42' E 007°21'0 0.0
2014-Aug-24 14:33N 43°42' E 007°21'0 0.0
2014-Aug-24 13:33N 43°42' E 007°21'0 0.0
2014-Aug-24 12:33N 43°42' E 007°21'0 0.0
2014-Aug-24 11:34N 43°41' E 007°21'0 0.0
2014-Aug-24 10:33N 43°41' E 007°21'0 0.0
2014-Aug-24 09:33N 43°42' E 007°21'0 0.0
2014-Aug-24 08:33N 43°42' E 007°21'0 0.0
2014-Aug-24 07:34N 43°42' E 007°21'0 0.0
2014-Aug-24 06:33N 43°41' E 007°21'0 0.0
2014-Aug-24 05:33N 43°41' E 007°21'0 0.0
2014-Aug-24 04:33N 43°41' E 007°21'0 0.0
2014-Aug-24 03:33N 43°41' E 007°21'0 0.0
2014-Aug-24 02:04N 43°41' E 007°21'0 0.0
2014-Aug-24 01:15N 43°41' E 007°21'0 0.0
2014-Aug-24 00:26N 43°42' E 007°21'0 0.0
2014-Aug-23 22:19N 43°41' E 007°21'0 0.0
2014-Aug-23 21:33N 43°41' E 007°21'0 0.0
2014-Aug-23 20:33N 43°41' E 007°21'0 0.0
2014-Aug-23 19:33N 43°41' E 007°21'0 0.0
2014-Aug-23 02:31N 43°41' E 007°21'0 0.0
2014-Aug-22 20:27N 43°41' E 007°21'0 0.0
2014-Aug-22 18:33N 43°41' E 007°21'0 0.0
2014-Aug-22 17:16N 43°41' E 007°21'0 0.0
2014-Aug-22 16:31N 43°41' E 007°21'0 0.0
2014-Aug-22 15:33N 43°42' E 007°21'2 2.1
2014-Aug-22 14:33N 43°40' E 007°19'1312.6
2014-Aug-22 13:33N 43°32' E 007°05'2 1.8
2014-Aug-22 12:33N 43°32' E 007°03'2 1.9
2014-Aug-22 11:33N 43°30' E 007°01'1313.2
2014-Aug-22 10:33N 43°22' E 006°48'9 8.7
2014-Aug-22 09:34N 43°16' E 006°38'0 0.0
2014-Aug-22 08:34N 43°16' E 006°38'0 0.0
2014-Aug-22 07:33N 43°16' E 006°38'0 0.0
2014-Aug-22 06:34N 43°16' E 006°38'0 0.0
2014-Aug-22 05:33N 43°16' E 006°38'0 0.0
2014-Aug-22 04:34N 43°16' E 006°38'0 0.0
2014-Aug-22 03:34N 43°16' E 006°38'0 0.0
2014-Aug-22 02:33N 43°16' E 006°38'0 0.0
2014-Aug-22 01:34N 43°16' E 006°38'0 0.0
2014-Aug-22 00:33N 43°16' E 006°38'0 0.0
2014-Aug-21 23:34N 43°16' E 006°38'0 0.0
2014-Aug-21 22:33N 43°16' E 006°38'0 0.0
2014-Aug-21 21:33N 43°16' E 006°38'0 0.0
2014-Aug-21 20:33N 43°16' E 006°38'0 0.0
2014-Aug-21 19:33N 43°16' E 006°38'0 0.0
2014-Aug-21 18:33N 43°16' E 006°38'0 0.0
2014-Aug-21 16:33N 43°16' E 006°38'4 4.1
2014-Aug-21 15:33N 43°19' E 006°43'1413.6
2014-Aug-21 14:33N 43°27' E 006°58'1413.7
2014-Aug-21 13:33N 43°36' E 007°12'8 8.3
2014-Aug-21 12:32N 43°41' E 007°21'0 0.0
2014-Aug-21 11:30N 43°41' E 007°21'0 0.0
2014-Aug-21 10:33N 43°41' E 007°21'0 0.0
2014-Aug-21 09:33N 43°41' E 007°21'0 0.0
2014-Aug-21 08:33N 43°41' E 007°21'0 0.0
2014-Aug-21 07:32N 43°41' E 007°21'0 0.0
2014-Aug-21 06:33N 43°41' E 007°21'0 0.0
2014-Aug-21 05:33N 43°41' E 007°21'0 0.0
2014-Aug-21 04:32N 43°41' E 007°21'0 0.0
2014-Aug-21 03:33N 43°41' E 007°21'0 0.0
2014-Aug-21 02:31N 43°41' E 007°21'0 0.0
2014-Aug-21 01:33N 43°41' E 007°21'0 0.0
2014-Aug-21 00:33N 43°41' E 007°21'0 0.0
2014-Aug-20 23:33N 43°41' E 007°21'0 0.0
2014-Aug-20 22:33N 43°41' E 007°21'0 0.0
2014-Aug-20 21:33N 43°41' E 007°21'0 0.0
2014-Aug-20 20:26N 43°41' E 007°21'0 0.0
2014-Aug-20 19:07N 43°41' E 007°21'0 0.0
2014-Aug-20 18:28N 43°41' E 007°21'0 0.0
2014-Aug-20 17:33N 43°41' E 007°21'0 0.0
2014-Aug-20 16:33N 43°41' E 007°21'5 5.2
2014-Aug-20 15:30N 43°45' E 007°27'0 0.0
2014-Aug-20 14:30N 43°45' E 007°27'0 0.0
2014-Aug-20 13:32N 43°45' E 007°27'0 0.0
2014-Aug-20 12:30N 43°45' E 007°27'15 0.7
2014-Aug-19 14:29N 43°49' E 007°47'5113.0
2014-Aug-19 10:34N 44°16' E 008°48'10 9.8
2014-Aug-19 09:33N 44°23' E 008°56'0 0.5
2014-Aug-19 08:34N 44°24' E 008°56'0 0.0
2014-Aug-19 07:33N 44°24' E 008°56'0 0.0
2014-Aug-19 06:34N 44°24' E 008°56'0 0.0
2014-Aug-19 05:33N 44°24' E 008°56'0 0.0
2014-Aug-19 04:34N 44°24' E 008°56'0 0.0
2014-Aug-19 03:33N 44°24' E 008°56'0 0.0
2014-Aug-19 02:32N 44°24' E 008°56'0 0.0
2014-Aug-19 01:33N 44°24' E 008°56'0 0.0
2014-Aug-19 00:32N 44°24' E 008°56'0 0.0
2014-Aug-18 23:33N 44°24' E 008°56'0 0.0
2014-Aug-18 22:34N 44°24' E 008°56'0 0.0
2014-Aug-18 21:28N 44°24' E 008°56'0 0.0
2014-Aug-18 20:33N 44°24' E 008°56'0 0.0
2014-Aug-18 19:29N 44°24' E 008°56'0 0.0
2014-Aug-18 18:33N 44°24' E 008°56'0 0.0
2014-Aug-18 17:33N 44°24' E 008°56'0 0.0
2014-Aug-18 16:34N 44°24' E 008°56'0 0.0
2014-Aug-18 15:32N 44°24' E 008°56'0 0.0
2014-Aug-18 14:33N 44°24' E 008°56'0 0.0
2014-Aug-18 13:32N 44°24' E 008°56'0 0.0
2014-Aug-18 12:33N 44°24' E 008°56'0 0.0
2014-Aug-18 11:33N 44°24' E 008°56'0 0.0
2014-Aug-18 10:32N 44°24' E 008°56'0 0.0
2014-Aug-18 09:33N 44°24' E 008°56'0 0.0
2014-Aug-18 08:33N 44°24' E 008°56'0 0.0
2014-Aug-18 07:33N 44°24' E 008°56'0 0.0
2014-Aug-18 06:32N 44°24' E 008°56'0 0.0
2014-Aug-18 05:33N 44°24' E 008°56'0 0.0
2014-Aug-18 04:33N 44°24' E 008°56'0 0.0
2014-Aug-18 03:33N 44°24' E 008°56'0 0.0
2014-Aug-18 02:33N 44°24' E 008°56'0 0.0
2014-Aug-18 01:32N 44°24' E 008°56'0 0.0
2014-Aug-18 00:33N 44°24' E 008°56'0 0.0
2014-Aug-17 18:33N 44°24' E 008°56'0 0.0
2014-Aug-17 17:33N 44°24' E 008°56'0 0.0
2014-Aug-17 16:33N 44°24' E 008°56'0 0.0
2014-Aug-17 15:33N 44°24' E 008°56'0 0.0
2014-Aug-17 14:33N 44°24' E 008°56'0 0.0
2014-Aug-17 13:33N 44°24' E 008°56'0 0.0
2014-Aug-17 12:33N 44°24' E 008°56'0 0.0
2014-Aug-17 11:33N 44°24' E 008°56'0 0.0
2014-Aug-17 10:32N 44°24' E 008°56'0 0.0
2014-Aug-17 09:33N 44°24' E 008°56'0 0.0
2014-Aug-17 08:33N 44°24' E 008°56'0 0.0
2014-Aug-17 07:33N 44°24' E 008°56'0 0.0
2014-Aug-17 06:33N 44°24' E 008°56'0 0.0
2014-Aug-17 05:33N 44°24' E 008°56'0 0.0
2014-Aug-17 04:33N 44°24' E 008°56'0 0.0
2014-Aug-17 03:33N 44°24' E 008°56'0 0.0
2014-Aug-17 02:33N 44°24' E 008°56'0 0.0
2014-Aug-17 01:33N 44°24' E 008°56'0 0.0
2014-Aug-17 00:33N 44°24' E 008°56'0 0.0
2014-Aug-16 23:33N 44°24' E 008°56'0 0.0
2014-Aug-16 22:32N 44°24' E 008°56'0 0.0
2014-Aug-16 21:33N 44°24' E 008°56'0 0.0
2014-Aug-16 20:33N 44°24' E 008°56'0 0.0
2014-Aug-16 19:33N 44°24' E 008°56'0 0.0
2014-Aug-16 18:33N 44°24' E 008°56'0 0.0
2014-Aug-16 17:32N 44°24' E 008°56'0 0.0
2014-Aug-16 16:33N 44°24' E 008°56'0 0.0
2014-Aug-16 15:33N 44°24' E 008°56'0 0.0
2014-Aug-16 14:33N 44°24' E 008°56'0 0.0
2014-Aug-16 13:33N 44°24' E 008°56'0 0.0
2014-Aug-16 12:33N 44°24' E 008°56'0 0.0
2014-Aug-16 11:32N 44°24' E 008°56'0 0.0
2014-Aug-16 10:33N 44°24' E 008°56'0 0.0
2014-Aug-16 09:33N 44°24' E 008°56'0 0.0
2014-Aug-16 08:33N 44°24' E 008°56'0 0.0
2014-Aug-16 07:30N 44°24' E 008°56'0 0.0
2014-Aug-16 06:33N 44°24' E 008°56'  
Track history (hours):
 
Tides and Currents Weather Stations Pressure Air Temp Water Temp Dewpoint Dewpoint Depression Visibility Wind Speed Wind Dir Waves Ship Positions

Dionea

Last reported at 2014-Aug-25 17:29 UTC. Time now 2014-Aug-29 16:21 UTC.
Position N 44°24' E 008°56'.

Length 52 m.

Type: Pleasure craft. MMSI: 247159400.

Date/timePositionNaut miles runAvg speedWind from/ knotsBaromVisibWave heightAir tempDewpointWater temp
2014-Aug-25 17:29N 44°24' E 008°56'7 7.1
2014-Aug-25 16:33N 44°17' E 008°54'5513.0
2014-Aug-25 12:19N 43°48' E 007°49'2212.3
2014-Aug-25 10:34N 43°42' E 007°21'0 0.0
2014-Aug-25 09:33N 43°42' E 007°21'0 0.0
2014-Aug-25 08:30N 43°42' E 007°21'0 0.0
2014-Aug-25 07:33N 43°41' E 007°21'0 0.0
2014-Aug-25 06:33N 43°41' E 007°21'0 0.0
2014-Aug-25 05:33N 43°41' E 007°21'0 0.0
2014-Aug-25 04:29N 43°41' E 007°21'0 0.0
2014-Aug-25 03:33N 43°41' E 007°21'0 0.0
2014-Aug-25 02:32N 43°41' E 007°21'0 0.0
2014-Aug-25 01:33N 43°41' E 007°21'0 0.0
2014-Aug-25 00:34N 43°41' E 007°21'0 0.0
2014-Aug-24 23:33N 43°41' E 007°21'0 0.0
2014-Aug-24 22:34N 43°41' E 007°21'0 0.0
2014-Aug-24 21:34N 43°41' E 007°21'0 0.0
2014-Aug-24 20:31N 43°41' E 007°21'0 0.0
2014-Aug-24 19:32N 43°41' E 007°21'0 0.0
2014-Aug-24 18:33N 43°42' E 007°21'0 0.0
2014-Aug-24 17:33N 43°42' E 007°21'0 0.0
2014-Aug-24 16:30N 43°42' E 007°21'0 0.0
2014-Aug-24 15:32N 43°42' E 007°21'0 0.0
2014-Aug-24 14:33N 43°42' E 007°21'0 0.0
2014-Aug-24 13:33N 43°42' E 007°21'0 0.0
2014-Aug-24 12:33N 43°42' E 007°21'0 0.0
2014-Aug-24 11:34N 43°41' E 007°21'0 0.0
2014-Aug-24 10:33N 43°41' E 007°21'0 0.0
2014-Aug-24 09:33N 43°42' E 007°21'0 0.0
2014-Aug-24 08:33N 43°42' E 007°21'0 0.0
2014-Aug-24 07:34N 43°42' E 007°21'0 0.0
2014-Aug-24 06:33N 43°41' E 007°21'0 0.0
2014-Aug-24 05:33N 43°41' E 007°21'0 0.0
2014-Aug-24 04:33N 43°41' E 007°21'0 0.0
2014-Aug-24 03:33N 43°41' E 007°21'0 0.0
2014-Aug-24 02:04N 43°41' E 007°21'0 0.0
2014-Aug-24 01:15N 43°41' E 007°21'0 0.0
2014-Aug-24 00:26N 43°42' E 007°21'0 0.0
2014-Aug-23 22:19N 43°41' E 007°21'0 0.0
2014-Aug-23 21:33N 43°41' E 007°21'0 0.0
2014-Aug-23 20:33N 43°41' E 007°21'0 0.0
2014-Aug-23 19:33N 43°41' E 007°21'0 0.0
2014-Aug-23 02:31N 43°41' E 007°21'0 0.0
2014-Aug-22 20:27N 43°41' E 007°21'0 0.0
2014-Aug-22 18:33N 43°41' E 007°21'0 0.0
2014-Aug-22 17:16N 43°41' E 007°21'0 0.0
2014-Aug-22 16:31N 43°41' E 007°21'0 0.0
2014-Aug-22 15:33N 43°42' E 007°21'2 2.1
2014-Aug-22 14:33N 43°40' E 007°19'1312.6
2014-Aug-22 13:33N 43°32' E 007°05'2 1.8
2014-Aug-22 12:33N 43°32' E 007°03'2 1.9
2014-Aug-22 11:33N 43°30' E 007°01'1313.2
2014-Aug-22 10:33N 43°22' E 006°48'9 8.7
2014-Aug-22 09:34N 43°16' E 006°38'0 0.0
2014-Aug-22 08:34N 43°16' E 006°38'0 0.0
2014-Aug-22 07:33N 43°16' E 006°38'0 0.0
2014-Aug-22 06:34N 43°16' E 006°38'0 0.0
2014-Aug-22 05:33N 43°16' E 006°38'0 0.0
2014-Aug-22 04:34N 43°16' E 006°38'0 0.0
2014-Aug-22 03:34N 43°16' E 006°38'0 0.0
2014-Aug-22 02:33N 43°16' E 006°38'0 0.0
2014-Aug-22 01:34N 43°16' E 006°38'0 0.0
2014-Aug-22 00:33N 43°16' E 006°38'0 0.0
2014-Aug-21 23:34N 43°16' E 006°38'0 0.0
2014-Aug-21 22:33N 43°16' E 006°38'0 0.0
2014-Aug-21 21:33N 43°16' E 006°38'0 0.0
2014-Aug-21 20:33N 43°16' E 006°38'0 0.0
2014-Aug-21 19:33N 43°16' E 006°38'0 0.0
2014-Aug-21 18:33N 43°16' E 006°38'0 0.0
2014-Aug-21 16:33N 43°16' E 006°38'4 4.1
2014-Aug-21 15:33N 43°19' E 006°43'1413.6
2014-Aug-21 14:33N 43°27' E 006°58'1413.7
2014-Aug-21 13:33N 43°36' E 007°12'8 8.3
2014-Aug-21 12:32N 43°41' E 007°21'0 0.0
2014-Aug-21 11:30N 43°41' E 007°21'0 0.0
2014-Aug-21 10:33N 43°41' E 007°21'0 0.0
2014-Aug-21 09:33N 43°41' E 007°21'0 0.0
2014-Aug-21 08:33N 43°41' E 007°21'0 0.0
2014-Aug-21 07:32N 43°41' E 007°21'0 0.0
2014-Aug-21 06:33N 43°41' E 007°21'0 0.0
2014-Aug-21 05:33N 43°41' E 007°21'0 0.0
2014-Aug-21 04:32N 43°41' E 007°21'0 0.0
2014-Aug-21 03:33N 43°41' E 007°21'0 0.0
2014-Aug-21 02:31N 43°41' E 007°21'0 0.0
2014-Aug-21 01:33N 43°41' E 007°21'0 0.0
2014-Aug-21 00:33N 43°41' E 007°21'0 0.0
2014-Aug-20 23:33N 43°41' E 007°21'0 0.0
2014-Aug-20 22:33N 43°41' E 007°21'0 0.0
2014-Aug-20 21:33N 43°41' E 007°21'0 0.0
2014-Aug-20 20:26N 43°41' E 007°21'0 0.0
2014-Aug-20 19:07N 43°41' E 007°21'0 0.0
2014-Aug-20 18:28N 43°41' E 007°21'0 0.0
2014-Aug-20 17:33N 43°41' E 007°21'0 0.0
2014-Aug-20 16:33N 43°41' E 007°21'5 5.2
2014-Aug-20 15:30N 43°45' E 007°27'0 0.0
2014-Aug-20 14:30N 43°45' E 007°27'0 0.0
2014-Aug-20 13:32N 43°45' E 007°27'0 0.0
2014-Aug-20 12:30N 43°45' E 007°27'15 0.7
2014-Aug-19 14:29N 43°49' E 007°47'5113.0
2014-Aug-19 10:34N 44°16' E 008°48'10 9.8
2014-Aug-19 09:33N 44°23' E 008°56'0 0.5
2014-Aug-19 08:34N 44°24' E 008°56'0 0.0
2014-Aug-19 07:33N 44°24' E 008°56'0 0.0
2014-Aug-19 06:34N 44°24' E 008°56'0 0.0
2014-Aug-19 05:33N 44°24' E 008°56'0 0.0
2014-Aug-19 04:34N 44°24' E 008°56'0 0.0
2014-Aug-19 03:33N 44°24' E 008°56'0 0.0
2014-Aug-19 02:32N 44°24' E 008°56'0 0.0
2014-Aug-19 01:33N 44°24' E 008°56'0 0.0
2014-Aug-19 00:32N 44°24' E 008°56'0 0.0
2014-Aug-18 23:33N 44°24' E 008°56'0 0.0
2014-Aug-18 22:34N 44°24' E 008°56'0 0.0
2014-Aug-18 21:28N 44°24' E 008°56'0 0.0
2014-Aug-18 20:33N 44°24' E 008°56'0 0.0
2014-Aug-18 19:29N 44°24' E 008°56'0 0.0
2014-Aug-18 18:33N 44°24' E 008°56'0 0.0
2014-Aug-18 17:33N 44°24' E 008°56'0 0.0
2014-Aug-18 16:34N 44°24' E 008°56'0 0.0
2014-Aug-18 15:32N 44°24' E 008°56'0 0.0
2014-Aug-18 14:33N 44°24' E 008°56'0 0.0
2014-Aug-18 13:32N 44°24' E 008°56'0 0.0
2014-Aug-18 12:33N 44°24' E 008°56'0 0.0
2014-Aug-18 11:33N 44°24' E 008°56'0 0.0
2014-Aug-18 10:32N 44°24' E 008°56'0 0.0
2014-Aug-18 09:33N 44°24' E 008°56'0 0.0
2014-Aug-18 08:33N 44°24' E 008°56'0 0.0
2014-Aug-18 07:33N 44°24' E 008°56'0 0.0
2014-Aug-18 06:32N 44°24' E 008°56'0 0.0
2014-Aug-18 05:33N 44°24' E 008°56'0 0.0
2014-Aug-18 04:33N 44°24' E 008°56'0 0.0
2014-Aug-18 03:33N 44°24' E 008°56'0 0.0
2014-Aug-18 02:33N 44°24' E 008°56'0 0.0
2014-Aug-18 01:32N 44°24' E 008°56'0 0.0
2014-Aug-18 00:33N 44°24' E 008°56'0 0.0
2014-Aug-17 18:33N 44°24' E 008°56'0 0.0
2014-Aug-17 17:33N 44°24' E 008°56'0 0.0
2014-Aug-17 16:33N 44°24' E 008°56'0 0.0
2014-Aug-17 15:33N 44°24' E 008°56'0 0.0
2014-Aug-17 14:33N 44°24' E 008°56'0 0.0
2014-Aug-17 13:33N 44°24' E 008°56'0 0.0
2014-Aug-17 12:33N 44°24' E 008°56'0 0.0
2014-Aug-17 11:33N 44°24' E 008°56'0 0.0
2014-Aug-17 10:32N 44°24' E 008°56'0 0.0
2014-Aug-17 09:33N 44°24' E 008°56'0 0.0
2014-Aug-17 08:33N 44°24' E 008°56'0 0.0
2014-Aug-17 07:33N 44°24' E 008°56'0 0.0
2014-Aug-17 06:33N 44°24' E 008°56'0 0.0
2014-Aug-17 05:33N 44°24' E 008°56'0 0.0
2014-Aug-17 04:33N 44°24' E 008°56'0 0.0
2014-Aug-17 03:33N 44°24' E 008°56'0 0.0
2014-Aug-17 02:33N 44°24' E 008°56'0 0.0
2014-Aug-17 01:33N 44°24' E 008°56'0 0.0
2014-Aug-17 00:33N 44°24' E 008°56'0 0.0
2014-Aug-16 23:33N 44°24' E 008°56'0 0.0
2014-Aug-16 22:32N 44°24' E 008°56'0 0.0
2014-Aug-16 21:33N 44°24' E 008°56'0 0.0
2014-Aug-16 20:33N 44°24' E 008°56'0 0.0
2014-Aug-16 19:33N 44°24' E 008°56'0 0.0
2014-Aug-16 18:33N 44°24' E 008°56'0 0.0
2014-Aug-16 17:32N 44°24' E 008°56'0 0.0
2014-Aug-16 16:33N 44°24' E 008°56'0 0.0
2014-Aug-16 15:33N 44°24' E 008°56'0 0.0
2014-Aug-16 14:33N 44°24' E 008°56'0 0.0
2014-Aug-16 13:33N 44°24' E 008°56'0 0.0
2014-Aug-16 12:33N 44°24' E 008°56'0 0.0
2014-Aug-16 11:32N 44°24' E 008°56'0 0.0
2014-Aug-16 10:33N 44°24' E 008°56'0 0.0
2014-Aug-16 09:33N 44°24' E 008°56'0 0.0
2014-Aug-16 08:33N 44°24' E 008°56'0 0.0
2014-Aug-16 07:30N 44°24' E 008°56'0 0.0
2014-Aug-16 06:33N 44°24' E 008°56'  

Dump ship's entire track history